sensor_id;sensor_type;location;lat;lon;timestamp;temperature;humidity
75994;DHT22;64680;53.800;9.988;2024-02-26T00:01:39;0.50;99.90
75994;DHT22;64680;53.800;9.988;2024-02-26T00:04:05;0.40;99.90
75994;DHT22;64680;53.800;9.988;2024-02-26T00:06:30;0.40;99.90
75994;DHT22;64680;53.800;9.988;2024-02-26T00:08:59;0.40;99.90
75994;DHT22;64680;53.800;9.988;2024-02-26T00:11:26;0.40;99.90
75994;DHT22;64680;53.800;9.988;2024-02-26T00:13:51;0.30;99.90
75994;DHT22;64680;53.800;9.988;2024-02-26T00:16:17;0.30;99.90
75994;DHT22;64680;53.800;9.988;2024-02-26T00:18:42;0.30;99.90
75994;DHT22;64680;53.800;9.988;2024-02-26T00:21:08;0.30;99.90
75994;DHT22;64680;53.800;9.988;2024-02-26T00:23:33;0.30;99.90
75994;DHT22;64680;53.800;9.988;2024-02-26T00:25:59;0.20;99.90
75994;DHT22;64680;53.800;9.988;2024-02-26T00:28:25;0.20;99.90
75994;DHT22;64680;53.800;9.988;2024-02-26T00:30:50;0.20;99.90
75994;DHT22;64680;53.800;9.988;2024-02-26T00:33:21;0.20;99.90
75994;DHT22;64680;53.800;9.988;2024-02-26T00:35:47;0.20;99.90
75994;DHT22;64680;53.800;9.988;2024-02-26T00:38:13;0.10;99.90
75994;DHT22;64680;53.800;9.988;2024-02-26T00:40:38;0.10;99.90
75994;DHT22;64680;53.800;9.988;2024-02-26T00:43:06;0.00;99.90
75994;DHT22;64680;53.800;9.988;2024-02-26T00:45:32;0.00;99.90
75994;DHT22;64680;53.800;9.988;2024-02-26T00:47:58;0.00;99.90
75994;DHT22;64680;53.800;9.988;2024-02-26T00:50:24;-0.10;99.90
75994;DHT22;64680;53.800;9.988;2024-02-26T00:52:49;-0.10;99.90
75994;DHT22;64680;53.800;9.988;2024-02-26T00:55:15;-0.10;99.90
75994;DHT22;64680;53.800;9.988;2024-02-26T00:57:40;-0.10;99.90
75994;DHT22;64680;53.800;9.988;2024-02-26T01:00:06;-0.10;99.90
75994;DHT22;64680;53.800;9.988;2024-02-26T01:02:34;-0.20;99.90
75994;DHT22;64680;53.800;9.988;2024-02-26T01:05:00;-0.20;99.90
75994;DHT22;64680;53.800;9.988;2024-02-26T01:07:25;-0.20;99.90
75994;DHT22;64680;53.800;9.988;2024-02-26T01:09:51;-0.30;99.90
75994;DHT22;64680;53.800;9.988;2024-02-26T01:12:16;-0.30;99.90
75994;DHT22;64680;53.800;9.988;2024-02-26T01:14:42;-0.30;99.90
75994;DHT22;64680;53.800;9.988;2024-02-26T01:17:08;-0.40;99.90
75994;DHT22;64680;53.800;9.988;2024-02-26T01:19:33;-0.40;99.90
75994;DHT22;64680;53.800;9.988;2024-02-26T01:21:59;-0.40;99.90
75994;DHT22;64680;53.800;9.988;2024-02-26T01:24:24;-0.40;99.90
75994;DHT22;64680;53.800;9.988;2024-02-26T01:26:50;-0.40;99.90
75994;DHT22;64680;53.800;9.988;2024-02-26T01:29:15;-0.40;99.90
75994;DHT22;64680;53.800;9.988;2024-02-26T01:31:44;-0.50;99.90
75994;DHT22;64680;53.800;9.988;2024-02-26T01:34:09;-0.50;99.90
75994;DHT22;64680;53.800;9.988;2024-02-26T01:36:35;-0.60;99.90
75994;DHT22;64680;53.800;9.988;2024-02-26T01:39:01;-0.60;99.90
75994;DHT22;64680;53.800;9.988;2024-02-26T01:41:28;-0.60;99.90
75994;DHT22;64680;53.800;9.988;2024-02-26T01:43:54;-0.60;99.90
75994;DHT22;64680;53.800;9.988;2024-02-26T01:46:20;-0.60;99.90
75994;DHT22;64680;53.800;9.988;2024-02-26T01:48:46;-0.70;99.90
75994;DHT22;64680;53.800;9.988;2024-02-26T01:51:14;-0.80;99.90
75994;DHT22;64680;53.800;9.988;2024-02-26T01:53:41;-0.80;99.90
75994;DHT22;64680;53.800;9.988;2024-02-26T01:56:07;-0.80;99.90
75994;DHT22;64680;53.800;9.988;2024-02-26T01:58:34;-0.80;99.90
75994;DHT22;64680;53.800;9.988;2024-02-26T02:01:01;-0.80;99.90
75994;DHT22;64680;53.800;9.988;2024-02-26T02:03:28;-0.90;99.90
75994;DHT22;64680;53.800;9.988;2024-02-26T02:05:55;-0.80;99.90
75994;DHT22;64680;53.800;9.988;2024-02-26T02:08:22;-0.90;99.90
75994;DHT22;64680;53.800;9.988;2024-02-26T02:10:48;-0.90;99.90
75994;DHT22;64680;53.800;9.988;2024-02-26T02:13:14;-1.00;99.90
75994;DHT22;64680;53.800;9.988;2024-02-26T02:15:40;-1.00;99.90
75994;DHT22;64680;53.800;9.988;2024-02-26T02:18:06;-1.00;99.90
75994;DHT22;64680;53.800;9.988;2024-02-26T02:20:32;-1.10;99.90
75994;DHT22;64680;53.800;9.988;2024-02-26T02:22:59;-1.10;99.90
75994;DHT22;64680;53.800;9.988;2024-02-26T02:25:25;-1.00;99.90
75994;DHT22;64680;53.800;9.988;2024-02-26T02:27:53;-1.10;99.90
75994;DHT22;64680;53.800;9.988;2024-02-26T02:30:20;-1.00;99.90
75994;DHT22;64680;53.800;9.988;2024-02-26T02:32:46;-1.00;99.90
75994;DHT22;64680;53.800;9.988;2024-02-26T02:35:12;-1.00;99.90
75994;DHT22;64680;53.800;9.988;2024-02-26T02:37:38;-1.00;99.90
75994;DHT22;64680;53.800;9.988;2024-02-26T02:40:04;-1.00;99.90
75994;DHT22;64680;53.800;9.988;2024-02-26T02:42:30;-0.90;99.90
75994;DHT22;64680;53.800;9.988;2024-02-26T02:44:56;-0.90;99.90
75994;DHT22;64680;53.800;9.988;2024-02-26T02:47:21;-0.90;99.90
75994;DHT22;64680;53.800;9.988;2024-02-26T02:49:47;-0.90;99.90
75994;DHT22;64680;53.800;9.988;2024-02-26T02:52:12;-0.90;99.90
75994;DHT22;64680;53.800;9.988;2024-02-26T02:54:38;-0.90;99.90
75994;DHT22;64680;53.800;9.988;2024-02-26T02:57:07;-0.90;99.90
75994;DHT22;64680;53.800;9.988;2024-02-26T02:59:33;-0.90;99.90
75994;DHT22;64680;53.800;9.988;2024-02-26T03:01:59;-1.00;99.90
75994;DHT22;64680;53.800;9.988;2024-02-26T03:04:24;-1.00;99.90
75994;DHT22;64680;53.800;9.988;2024-02-26T03:06:50;-1.00;99.90
75994;DHT22;64680;53.800;9.988;2024-02-26T03:09:18;-1.00;99.90
75994;DHT22;64680;53.800;9.988;2024-02-26T03:11:44;-1.00;99.90
75994;DHT22;64680;53.800;9.988;2024-02-26T03:14:09;-1.10;99.90
75994;DHT22;64680;53.800;9.988;2024-02-26T03:16:35;-1.20;99.90
75994;DHT22;64680;53.800;9.988;2024-02-26T03:19:01;-1.20;99.90
75994;DHT22;64680;53.800;9.988;2024-02-26T03:21:28;-1.10;99.90
75994;DHT22;64680;53.800;9.988;2024-02-26T03:23:54;-1.10;99.90
75994;DHT22;64680;53.800;9.988;2024-02-26T03:26:19;-1.10;99.90
75994;DHT22;64680;53.800;9.988;2024-02-26T03:28:45;-1.10;99.90
75994;DHT22;64680;53.800;9.988;2024-02-26T03:31:10;-1.10;99.90
75994;DHT22;64680;53.800;9.988;2024-02-26T03:33:36;-1.10;99.90
75994;DHT22;64680;53.800;9.988;2024-02-26T03:36:02;-1.00;99.90
75994;DHT22;64680;53.800;9.988;2024-02-26T03:38:29;-1.10;99.90
75994;DHT22;64680;53.800;9.988;2024-02-26T03:40:54;-1.10;99.90
75994;DHT22;64680;53.800;9.988;2024-02-26T03:43:20;-1.10;99.90
75994;DHT22;64680;53.800;9.988;2024-02-26T03:45:45;-1.10;99.90
75994;DHT22;64680;53.800;9.988;2024-02-26T03:48:11;-1.10;99.90
75994;DHT22;64680;53.800;9.988;2024-02-26T03:50:36;-1.10;99.90
75994;DHT22;64680;53.800;9.988;2024-02-26T03:53:02;-1.10;99.90
75994;DHT22;64680;53.800;9.988;2024-02-26T03:55:28;-1.20;99.90
75994;DHT22;64680;53.800;9.988;2024-02-26T03:57:53;-1.10;99.90
75994;DHT22;64680;53.800;9.988;2024-02-26T04:00:19;-1.10;99.90
75994;DHT22;64680;53.800;9.988;2024-02-26T04:02:47;-1.10;99.90
75994;DHT22;64680;53.800;9.988;2024-02-26T04:05:13;-1.10;99.90
75994;DHT22;64680;53.800;9.988;2024-02-26T04:07:39;-1.10;99.90
75994;DHT22;64680;53.800;9.988;2024-02-26T04:10:10;-1.10;99.90
75994;DHT22;64680;53.800;9.988;2024-02-26T04:12:35;-1.10;99.90
75994;DHT22;64680;53.800;9.988;2024-02-26T04:15:01;-1.00;99.90
75994;DHT22;64680;53.800;9.988;2024-02-26T04:17:26;-1.00;99.90
75994;DHT22;64680;53.800;9.988;2024-02-26T04:19:52;-1.00;99.90
75994;DHT22;64680;53.800;9.988;2024-02-26T04:22:17;-1.00;99.90
75994;DHT22;64680;53.800;9.988;2024-02-26T04:24:43;-1.00;99.90
75994;DHT22;64680;53.800;9.988;2024-02-26T04:27:09;-1.00;99.90
75994;DHT22;64680;53.800;9.988;2024-02-26T04:29:34;-1.00;99.90
75994;DHT22;64680;53.800;9.988;2024-02-26T04:32:00;-1.00;99.90
75994;DHT22;64680;53.800;9.988;2024-02-26T04:34:28;-1.00;99.90
75994;DHT22;64680;53.800;9.988;2024-02-26T04:36:53;-1.00;99.90
75994;DHT22;64680;53.800;9.988;2024-02-26T04:39:19;-0.90;99.90
75994;DHT22;64680;53.800;9.988;2024-02-26T04:41:44;-0.90;99.90
75994;DHT22;64680;53.800;9.988;2024-02-26T04:44:10;-0.80;99.90
75994;DHT22;64680;53.800;9.988;2024-02-26T04:46:36;-0.80;99.90
75994;DHT22;64680;53.800;9.988;2024-02-26T04:49:01;-0.70;99.90
75994;DHT22;64680;53.800;9.988;2024-02-26T04:51:27;-0.60;99.90
75994;DHT22;64680;53.800;9.988;2024-02-26T04:53:52;-0.60;99.90
75994;DHT22;64680;53.800;9.988;2024-02-26T04:56:23;-0.50;99.90
75994;DHT22;64680;53.800;9.988;2024-02-26T04:58:48;-0.40;99.90
75994;DHT22;64680;53.800;9.988;2024-02-26T05:01:15;-0.30;99.90
75994;DHT22;64680;53.800;9.988;2024-02-26T05:03:42;-0.30;99.90
75994;DHT22;64680;53.800;9.988;2024-02-26T05:06:08;-0.30;99.90
75994;DHT22;64680;53.800;9.988;2024-02-26T05:08:34;-0.30;99.90
75994;DHT22;64680;53.800;9.988;2024-02-26T05:11:02;-0.30;99.90
75994;DHT22;64680;53.800;9.988;2024-02-26T05:13:28;-0.30;99.90
75994;DHT22;64680;53.800;9.988;2024-02-26T05:15:54;-0.20;99.90
75994;DHT22;64680;53.800;9.988;2024-02-26T05:18:20;-0.20;99.90
75994;DHT22;64680;53.800;9.988;2024-02-26T05:20:45;-0.20;99.90
75994;DHT22;64680;53.800;9.988;2024-02-26T05:23:11;-0.20;99.90
75994;DHT22;64680;53.800;9.988;2024-02-26T05:25:37;-0.10;99.90
75994;DHT22;64680;53.800;9.988;2024-02-26T05:28:03;-0.20;99.90
75994;DHT22;64680;53.800;9.988;2024-02-26T05:30:28;-0.20;99.90
75994;DHT22;64680;53.800;9.988;2024-02-26T05:32:54;-0.20;99.90
75994;DHT22;64680;53.800;9.988;2024-02-26T05:35:20;-0.10;99.90
75994;DHT22;64680;53.800;9.988;2024-02-26T05:37:45;-0.10;99.90
75994;DHT22;64680;53.800;9.988;2024-02-26T05:40:11;-0.10;99.90
75994;DHT22;64680;53.800;9.988;2024-02-26T05:42:37;-0.10;99.90
75994;DHT22;64680;53.800;9.988;2024-02-26T05:45:03;-0.10;99.90
75994;DHT22;64680;53.800;9.988;2024-02-26T05:47:35;-0.10;99.90
75994;DHT22;64680;53.800;9.988;2024-02-26T05:50:01;0.00;99.90
75994;DHT22;64680;53.800;9.988;2024-02-26T05:52:27;0.10;99.90
75994;DHT22;64680;53.800;9.988;2024-02-26T05:54:54;0.00;99.90
75994;DHT22;64680;53.800;9.988;2024-02-26T05:57:20;0.00;99.90
75994;DHT22;64680;53.800;9.988;2024-02-26T05:59:46;0.10;99.90
75994;DHT22;64680;53.800;9.988;2024-02-26T06:02:11;0.10;99.90
75994;DHT22;64680;53.800;9.988;2024-02-26T06:04:37;0.10;99.90
75994;DHT22;64680;53.800;9.988;2024-02-26T06:07:03;0.10;99.90
75994;DHT22;64680;53.800;9.988;2024-02-26T06:09:28;0.10;99.90
75994;DHT22;64680;53.800;9.988;2024-02-26T06:11:54;0.10;99.90
75994;DHT22;64680;53.800;9.988;2024-02-26T06:14:20;0.10;99.90
75994;DHT22;64680;53.800;9.988;2024-02-26T06:16:46;0.10;99.90
75994;DHT22;64680;53.800;9.988;2024-02-26T06:19:11;0.10;99.90
75994;DHT22;64680;53.800;9.988;2024-02-26T06:21:37;0.10;99.90
75994;DHT22;64680;53.800;9.988;2024-02-26T06:24:03;0.10;99.90
75994;DHT22;64680;53.800;9.988;2024-02-26T06:26:29;0.10;99.90
75994;DHT22;64680;53.800;9.988;2024-02-26T06:28:55;0.10;99.90
75994;DHT22;64680;53.800;9.988;2024-02-26T06:31:21;0.00;99.90
75994;DHT22;64680;53.800;9.988;2024-02-26T06:33:48;0.00;99.90
75994;DHT22;64680;53.800;9.988;2024-02-26T06:36:15;0.10;99.90
75994;DHT22;64680;53.800;9.988;2024-02-26T06:38:41;0.10;99.90
75994;DHT22;64680;53.800;9.988;2024-02-26T06:41:06;0.10;99.90
75994;DHT22;64680;53.800;9.988;2024-02-26T06:43:32;0.10;99.90
75994;DHT22;64680;53.800;9.988;2024-02-26T06:45:58;0.00;99.90
75994;DHT22;64680;53.800;9.988;2024-02-26T06:48:24;0.10;99.90
75994;DHT22;64680;53.800;9.988;2024-02-26T06:50:50;0.10;99.90
75994;DHT22;64680;53.800;9.988;2024-02-26T06:53:15;0.10;99.90
75994;DHT22;64680;53.800;9.988;2024-02-26T06:55:42;0.00;99.90
75994;DHT22;64680;53.800;9.988;2024-02-26T06:58:08;0.00;99.90
75994;DHT22;64680;53.800;9.988;2024-02-26T07:00:34;0.10;99.90
75994;DHT22;64680;53.800;9.988;2024-02-26T07:03:00;0.10;99.90
75994;DHT22;64680;53.800;9.988;2024-02-26T07:05:26;0.00;99.90
75994;DHT22;64680;53.800;9.988;2024-02-26T07:07:52;0.00;99.90
75994;DHT22;64680;53.800;9.988;2024-02-26T07:10:18;0.10;99.90
75994;DHT22;64680;53.800;9.988;2024-02-26T07:12:43;0.10;99.90
75994;DHT22;64680;53.800;9.988;2024-02-26T07:15:09;0.20;99.90
75994;DHT22;64680;53.800;9.988;2024-02-26T07:17:35;0.20;99.90
75994;DHT22;64680;53.800;9.988;2024-02-26T07:20:01;0.30;99.90
75994;DHT22;64680;53.800;9.988;2024-02-26T07:22:30;0.40;99.90
75994;DHT22;64680;53.800;9.988;2024-02-26T07:24:55;0.40;99.90
75994;DHT22;64680;53.800;9.988;2024-02-26T07:27:21;0.40;99.90
75994;DHT22;64680;53.800;9.988;2024-02-26T07:29:47;0.40;99.90
75994;DHT22;64680;53.800;9.988;2024-02-26T07:32:12;0.50;99.90
75994;DHT22;64680;53.800;9.988;2024-02-26T07:34:38;0.50;99.90
75994;DHT22;64680;53.800;9.988;2024-02-26T07:37:07;0.60;99.90
75994;DHT22;64680;53.800;9.988;2024-02-26T07:39:33;0.70;99.90
75994;DHT22;64680;53.800;9.988;2024-02-26T07:41:59;0.70;99.90
75994;DHT22;64680;53.800;9.988;2024-02-26T07:44:24;0.70;99.90
75994;DHT22;64680;53.800;9.988;2024-02-26T07:46:50;0.70;99.90
75994;DHT22;64680;53.800;9.988;2024-02-26T07:49:16;0.80;99.90
75994;DHT22;64680;53.800;9.988;2024-02-26T07:51:41;0.80;99.90
75994;DHT22;64680;53.800;9.988;2024-02-26T07:54:07;0.90;99.90
75994;DHT22;64680;53.800;9.988;2024-02-26T07:56:33;1.00;99.90
75994;DHT22;64680;53.800;9.988;2024-02-26T07:58:58;1.10;99.90
75994;DHT22;64680;53.800;9.988;2024-02-26T08:01:24;1.10;99.90
75994;DHT22;64680;53.800;9.988;2024-02-26T08:03:53;1.20;99.90
75994;DHT22;64680;53.800;9.988;2024-02-26T08:06:18;1.30;99.90
75994;DHT22;64680;53.800;9.988;2024-02-26T08:08:44;1.40;99.90
75994;DHT22;64680;53.800;9.988;2024-02-26T08:11:09;1.60;99.90
75994;DHT22;64680;53.800;9.988;2024-02-26T08:13:35;1.80;99.90
75994;DHT22;64680;53.800;9.988;2024-02-26T08:16:01;2.00;99.90
75994;DHT22;64680;53.800;9.988;2024-02-26T08:18:27;2.20;99.90
75994;DHT22;64680;53.800;9.988;2024-02-26T08:20:52;2.20;99.90
75994;DHT22;64680;53.800;9.988;2024-02-26T08:23:18;2.30;99.90
75994;DHT22;64680;53.800;9.988;2024-02-26T08:25:44;2.50;99.90
75994;DHT22;64680;53.800;9.988;2024-02-26T08:28:09;2.60;99.90
75994;DHT22;64680;53.800;9.988;2024-02-26T08:30:38;2.80;99.90
75994;DHT22;64680;53.800;9.988;2024-02-26T08:33:04;2.90;99.90
75994;DHT22;64680;53.800;9.988;2024-02-26T08:35:29;3.10;99.90
75994;DHT22;64680;53.800;9.988;2024-02-26T08:37:55;3.10;99.90
75994;DHT22;64680;53.800;9.988;2024-02-26T08:40:21;3.20;99.90
75994;DHT22;64680;53.800;9.988;2024-02-26T08:42:46;3.40;99.90
75994;DHT22;64680;53.800;9.988;2024-02-26T08:45:12;3.40;99.90
75994;DHT22;64680;53.800;9.988;2024-02-26T08:47:38;3.50;99.90
75994;DHT22;64680;53.800;9.988;2024-02-26T08:50:05;3.70;99.90
75994;DHT22;64680;53.800;9.988;2024-02-26T08:52:30;3.70;99.90
75994;DHT22;64680;53.800;9.988;2024-02-26T08:54:56;3.60;99.90
75994;DHT22;64680;53.800;9.988;2024-02-26T08:57:22;3.70;99.90
75994;DHT22;64680;53.800;9.988;2024-02-26T08:59:48;3.70;99.90
75994;DHT22;64680;53.800;9.988;2024-02-26T09:02:13;3.70;99.90
75994;DHT22;64680;53.800;9.988;2024-02-26T09:04:39;3.70;99.90
75994;DHT22;64680;53.800;9.988;2024-02-26T09:07:05;3.70;99.90
75994;DHT22;64680;53.800;9.988;2024-02-26T09:09:31;3.80;99.90
75994;DHT22;64680;53.800;9.988;2024-02-26T09:11:57;3.80;99.90
75994;DHT22;64680;53.800;9.988;2024-02-26T09:14:22;3.80;99.90
75994;DHT22;64680;53.800;9.988;2024-02-26T09:16:48;3.80;99.90
75994;DHT22;64680;53.800;9.988;2024-02-26T09:19:14;3.80;99.90
75994;DHT22;64680;53.800;9.988;2024-02-26T09:21:44;3.70;99.90
75994;DHT22;64680;53.800;9.988;2024-02-26T09:24:11;3.70;99.90
75994;DHT22;64680;53.800;9.988;2024-02-26T09:26:37;3.70;99.90
75994;DHT22;64680;53.800;9.988;2024-02-26T09:29:03;3.70;99.90
75994;DHT22;64680;53.800;9.988;2024-02-26T09:31:29;3.70;99.90
75994;DHT22;64680;53.800;9.988;2024-02-26T09:33:55;3.80;99.90
75994;DHT22;64680;53.800;9.988;2024-02-26T09:36:21;3.90;99.90
75994;DHT22;64680;53.800;9.988;2024-02-26T09:38:47;3.90;99.90
75994;DHT22;64680;53.800;9.988;2024-02-26T09:41:16;3.90;99.90
75994;DHT22;64680;53.800;9.988;2024-02-26T09:43:44;4.00;99.90
75994;DHT22;64680;53.800;9.988;2024-02-26T09:46:11;4.00;99.90
75994;DHT22;64680;53.800;9.988;2024-02-26T09:48:38;4.10;99.90
75994;DHT22;64680;53.800;9.988;2024-02-26T09:51:04;4.30;99.90
75994;DHT22;64680;53.800;9.988;2024-02-26T09:53:30;4.40;99.90
75994;DHT22;64680;53.800;9.988;2024-02-26T09:56:00;4.50;99.90
75994;DHT22;64680;53.800;9.988;2024-02-26T09:58:28;4.60;99.90
75994;DHT22;64680;53.800;9.988;2024-02-26T10:00:57;4.70;98.10
75994;DHT22;64680;53.800;9.988;2024-02-26T10:03:30;4.60;97.30
75994;DHT22;64680;53.800;9.988;2024-02-26T10:05:56;4.60;98.30
75994;DHT22;64680;53.800;9.988;2024-02-26T10:08:23;4.60;97.70
75994;DHT22;64680;53.800;9.988;2024-02-26T10:10:50;4.70;96.20
75994;DHT22;64680;53.800;9.988;2024-02-26T10:13:15;4.70;97.70
75994;DHT22;64680;53.800;9.988;2024-02-26T10:15:41;4.70;97.80
75994;DHT22;64680;53.800;9.988;2024-02-26T10:18:07;4.50;97.00
75994;DHT22;64680;53.800;9.988;2024-02-26T10:20:32;4.20;98.60
75994;DHT22;64680;53.800;9.988;2024-02-26T10:23:02;4.20;99.90
75994;DHT22;64680;53.800;9.988;2024-02-26T10:25:28;4.20;99.90
75994;DHT22;64680;53.800;9.988;2024-02-26T10:27:53;4.40;99.90
75994;DHT22;64680;53.800;9.988;2024-02-26T10:30:21;4.50;99.90
75994;DHT22;64680;53.800;9.988;2024-02-26T10:32:48;4.40;99.90
75994;DHT22;64680;53.800;9.988;2024-02-26T10:35:15;4.20;99.90
75994;DHT22;64680;53.800;9.988;2024-02-26T10:37:41;4.20;99.90
75994;DHT22;64680;53.800;9.988;2024-02-26T10:40:16;4.00;99.90
75994;DHT22;64680;53.800;9.988;2024-02-26T10:42:42;3.90;99.90
75994;DHT22;64680;53.800;9.988;2024-02-26T10:45:09;3.90;99.90
75994;DHT22;64680;53.800;9.988;2024-02-26T10:47:36;3.90;99.90
75994;DHT22;64680;53.800;9.988;2024-02-26T10:50:03;3.90;99.90
75994;DHT22;64680;53.800;9.988;2024-02-26T10:52:33;3.80;99.90
75994;DHT22;64680;53.800;9.988;2024-02-26T10:55:04;3.80;99.90
75994;DHT22;64680;53.800;9.988;2024-02-26T10:57:35;3.90;99.90
75994;DHT22;64680;53.800;9.988;2024-02-26T11:00:03;3.90;99.90
75994;DHT22;64680;53.800;9.988;2024-02-26T11:02:33;3.90;99.90
75994;DHT22;64680;53.800;9.988;2024-02-26T11:05:03;3.90;99.90
75994;DHT22;64680;53.800;9.988;2024-02-26T11:07:30;3.80;99.90
75994;DHT22;64680;53.800;9.988;2024-02-26T11:09:59;3.80;99.90
75994;DHT22;64680;53.800;9.988;2024-02-26T11:12:27;3.80;99.90
75994;DHT22;64680;53.800;9.988;2024-02-26T11:14:54;3.90;99.90
75994;DHT22;64680;53.800;9.988;2024-02-26T11:17:22;4.00;99.90
75994;DHT22;64680;53.800;9.988;2024-02-26T11:19:50;4.10;99.90
75994;DHT22;64680;53.800;9.988;2024-02-26T11:22:16;4.20;99.90
75994;DHT22;64680;53.800;9.988;2024-02-26T11:24:42;4.20;99.90
75994;DHT22;64680;53.800;9.988;2024-02-26T11:27:10;4.10;99.90
75994;DHT22;64680;53.800;9.988;2024-02-26T11:29:41;4.00;99.90
75994;DHT22;64680;53.800;9.988;2024-02-26T11:32:09;4.10;99.90
75994;DHT22;64680;53.800;9.988;2024-02-26T11:34:35;4.30;99.90
75994;DHT22;64680;53.800;9.988;2024-02-26T11:37:11;4.10;99.90
75994;DHT22;64680;53.800;9.988;2024-02-26T11:39:40;4.20;99.90
75994;DHT22;64680;53.800;9.988;2024-02-26T11:42:08;4.30;99.90
75994;DHT22;64680;53.800;9.988;2024-02-26T11:44:35;4.30;99.90
75994;DHT22;64680;53.800;9.988;2024-02-26T11:47:13;4.40;99.90
75994;DHT22;64680;53.800;9.988;2024-02-26T11:49:39;4.30;99.90
75994;DHT22;64680;53.800;9.988;2024-02-26T11:52:07;4.30;99.90
75994;DHT22;64680;53.800;9.988;2024-02-26T11:54:49;4.20;99.90
75994;DHT22;64680;53.800;9.988;2024-02-26T11:57:28;4.30;99.90
75994;DHT22;64680;53.800;9.988;2024-02-26T11:59:55;4.40;99.90
75994;DHT22;64680;53.800;9.988;2024-02-26T12:05:20;4.40;99.90
75994;DHT22;64680;53.800;9.988;2024-02-26T12:07:53;4.40;99.90
75994;DHT22;64680;53.800;9.988;2024-02-26T12:10:31;4.50;99.90
75994;DHT22;64680;53.800;9.988;2024-02-26T12:15:41;4.40;99.90
75994;DHT22;64680;53.800;9.988;2024-02-26T12:18:08;4.50;99.90
75994;DHT22;64680;53.800;9.988;2024-02-26T12:20:36;4.40;99.90
75994;DHT22;64680;53.800;9.988;2024-02-26T12:23:02;4.30;99.90
75994;DHT22;64680;53.800;9.988;2024-02-26T12:25:30;4.30;99.90
75994;DHT22;64680;53.800;9.988;2024-02-26T12:27:57;4.30;99.90
75994;DHT22;64680;53.800;9.988;2024-02-26T12:30:23;4.40;99.90
75994;DHT22;64680;53.800;9.988;2024-02-26T12:32:50;4.40;99.90
75994;DHT22;64680;53.800;9.988;2024-02-26T12:35:16;4.20;99.90
75994;DHT22;64680;53.800;9.988;2024-02-26T12:37:43;4.30;99.90
75994;DHT22;64680;53.800;9.988;2024-02-26T12:40:09;4.30;99.90
75994;DHT22;64680;53.800;9.988;2024-02-26T12:42:36;4.30;99.90
75994;DHT22;64680;53.800;9.988;2024-02-26T12:45:07;4.30;99.90
75994;DHT22;64680;53.800;9.988;2024-02-26T12:50:04;4.20;99.90
75994;DHT22;64680;53.800;9.988;2024-02-26T12:52:34;4.30;99.90
75994;DHT22;64680;53.800;9.988;2024-02-26T12:55:01;4.40;99.90
75994;DHT22;64680;53.800;9.988;2024-02-26T12:57:32;4.50;99.90
75994;DHT22;64680;53.800;9.988;2024-02-26T12:59:59;4.40;99.90
75994;DHT22;64680;53.800;9.988;2024-02-26T13:02:25;4.40;99.90
75994;DHT22;64680;53.800;9.988;2024-02-26T13:04:51;4.40;99.90
75994;DHT22;64680;53.800;9.988;2024-02-26T13:07:17;4.30;99.90
75994;DHT22;64680;53.800;9.988;2024-02-26T13:09:43;4.20;99.90
75994;DHT22;64680;53.800;9.988;2024-02-26T13:12:09;4.30;99.90
75994;DHT22;64680;53.800;9.988;2024-02-26T13:14:34;4.30;99.90
75994;DHT22;64680;53.800;9.988;2024-02-26T13:17:01;4.40;99.90
75994;DHT22;64680;53.800;9.988;2024-02-26T13:19:27;4.50;99.90
75994;DHT22;64680;53.800;9.988;2024-02-26T13:21:56;4.40;99.90
75994;DHT22;64680;53.800;9.988;2024-02-26T13:24:28;4.60;99.90
75994;DHT22;64680;53.800;9.988;2024-02-26T13:26:56;4.60;99.90
75994;DHT22;64680;53.800;9.988;2024-02-26T13:29:22;4.60;99.90
75994;DHT22;64680;53.800;9.988;2024-02-26T13:31:57;4.50;99.90
75994;DHT22;64680;53.800;9.988;2024-02-26T13:34:26;4.60;99.90
75994;DHT22;64680;53.800;9.988;2024-02-26T13:36:53;4.70;99.90
75994;DHT22;64680;53.800;9.988;2024-02-26T13:39:24;4.80;99.90
75994;DHT22;64680;53.800;9.988;2024-02-26T13:41:51;4.70;99.90
75994;DHT22;64680;53.800;9.988;2024-02-26T13:44:16;4.80;99.90
75994;DHT22;64680;53.800;9.988;2024-02-26T13:46:42;5.00;99.90
75994;DHT22;64680;53.800;9.988;2024-02-26T13:49:09;4.80;98.60
75994;DHT22;64680;53.800;9.988;2024-02-26T13:51:35;4.90;99.10
75994;DHT22;64680;53.800;9.988;2024-02-26T13:54:01;5.00;97.90
75994;DHT22;64680;53.800;9.988;2024-02-26T13:56:26;5.10;97.70
75994;DHT22;64680;53.800;9.988;2024-02-26T13:58:52;5.10;95.50
75994;DHT22;64680;53.800;9.988;2024-02-26T14:01:18;4.90;95.00
75994;DHT22;64680;53.800;9.988;2024-02-26T14:03:43;4.80;95.30
75994;DHT22;64680;53.800;9.988;2024-02-26T14:06:09;4.80;98.70
75994;DHT22;64680;53.800;9.988;2024-02-26T14:08:35;4.80;99.70
75994;DHT22;64680;53.800;9.988;2024-02-26T14:11:00;4.80;99.90
75994;DHT22;64680;53.800;9.988;2024-02-26T14:13:26;4.80;99.60
75994;DHT22;64680;53.800;9.988;2024-02-26T14:15:51;4.90;98.30
75994;DHT22;64680;53.800;9.988;2024-02-26T14:18:17;4.80;96.80
75994;DHT22;64680;53.800;9.988;2024-02-26T14:20:42;4.80;96.60
75994;DHT22;64680;53.800;9.988;2024-02-26T14:23:10;4.70;97.70
75994;DHT22;64680;53.800;9.988;2024-02-26T14:25:35;4.70;97.80
75994;DHT22;64680;53.800;9.988;2024-02-26T14:28:02;4.80;96.10
75994;DHT22;64680;53.800;9.988;2024-02-26T14:30:28;4.90;98.40
75994;DHT22;64680;53.800;9.988;2024-02-26T14:32:53;4.90;99.10
75994;DHT22;64680;53.800;9.988;2024-02-26T14:35:19;5.00;98.10
75994;DHT22;64680;53.800;9.988;2024-02-26T14:37:45;5.00;93.70
75994;DHT22;64680;53.800;9.988;2024-02-26T14:40:15;5.00;94.50
75994;DHT22;64680;53.800;9.988;2024-02-26T14:42:41;5.00;92.80
75994;DHT22;64680;53.800;9.988;2024-02-26T14:45:07;5.10;93.00
75994;DHT22;64680;53.800;9.988;2024-02-26T14:47:37;5.10;91.20
75994;DHT22;64680;53.800;9.988;2024-02-26T14:50:04;5.00;88.90
75994;DHT22;64680;53.800;9.988;2024-02-26T14:52:30;5.00;89.00
75994;DHT22;64680;53.800;9.988;2024-02-26T14:54:56;5.00;91.00
75994;DHT22;64680;53.800;9.988;2024-02-26T14:57:25;5.10;91.60
75994;DHT22;64680;53.800;9.988;2024-02-26T14:59:51;5.10;93.60
75994;DHT22;64680;53.800;9.988;2024-02-26T15:02:17;5.10;92.10
75994;DHT22;64680;53.800;9.988;2024-02-26T15:04:43;5.10;93.30
75994;DHT22;64680;53.800;9.988;2024-02-26T15:07:09;5.00;92.40
75994;DHT22;64680;53.800;9.988;2024-02-26T15:09:37;5.00;92.40
75994;DHT22;64680;53.800;9.988;2024-02-26T15:12:03;4.90;92.70
75994;DHT22;64680;53.800;9.988;2024-02-26T15:14:32;4.90;93.10
75994;DHT22;64680;53.800;9.988;2024-02-26T15:16:57;4.80;93.20
75994;DHT22;64680;53.800;9.988;2024-02-26T15:19:23;4.60;95.00
75994;DHT22;64680;53.800;9.988;2024-02-26T15:21:49;4.60;95.30
75994;DHT22;64680;53.800;9.988;2024-02-26T15:24:15;4.60;98.00
75994;DHT22;64680;53.800;9.988;2024-02-26T15:26:45;4.50;96.90
75994;DHT22;64680;53.800;9.988;2024-02-26T15:29:11;4.50;99.30
75994;DHT22;64680;53.800;9.988;2024-02-26T15:31:37;4.40;99.90
75994;DHT22;64680;53.800;9.988;2024-02-26T15:34:03;4.30;99.90
75994;DHT22;64680;53.800;9.988;2024-02-26T15:36:29;4.30;99.90
75994;DHT22;64680;53.800;9.988;2024-02-26T15:38:55;4.30;99.90
75994;DHT22;64680;53.800;9.988;2024-02-26T15:41:22;4.20;99.90
75994;DHT22;64680;53.800;9.988;2024-02-26T15:43:48;4.20;99.90